createdAt,value
2018-07-22T00:00:14.910Z,0.00
2018-07-22T00:01:14.923Z,0.00
2018-07-22T00:02:14.932Z,0.00
2018-07-22T00:03:14.950Z,0.00
2018-07-22T00:04:14.962Z,0.00
2018-07-22T00:05:14.964Z,0.00
2018-07-22T00:06:14.977Z,0.00
2018-07-22T00:07:14.996Z,0.00
2018-07-22T00:09:15.024Z,0.00
2018-07-22T00:10:15.037Z,0.00
2018-07-22T00:11:15.038Z,0.00
2018-07-22T00:12:15.063Z,0.00
2018-07-22T00:13:15.075Z,0.00
2018-07-22T00:14:15.088Z,0.00
2018-07-22T00:15:15.098Z,0.00
2018-07-22T00:16:15.104Z,0.00
2018-07-22T00:18:15.120Z,0.00
2018-07-22T00:19:15.137Z,0.00
2018-07-22T00:20:15.159Z,0.00
2018-07-22T00:21:15.162Z,0.00
2018-07-22T00:22:15.179Z,0.00
2018-07-22T00:23:15.186Z,0.00
2018-07-22T00:24:15.193Z,0.00
2018-07-22T00:25:15.211Z,0.00
2018-07-22T00:26:15.221Z,0.00
2018-07-22T00:27:15.237Z,0.00
2018-07-22T00:28:15.250Z,0.00
2018-07-22T00:29:15.274Z,0.00
2018-07-22T00:31:15.320Z,0.00
2018-07-22T00:32:15.299Z,0.00
2018-07-22T00:33:15.305Z,0.00
2018-07-22T00:34:15.320Z,0.00
2018-07-22T00:35:15.335Z,0.00
2018-07-22T00:36:15.339Z,0.00
2018-07-22T00:37:15.369Z,0.00
2018-07-22T00:38:15.391Z,0.00
2018-07-22T00:39:15.381Z,0.00
2018-07-22T00:40:15.393Z,0.00
2018-07-22T00:41:15.418Z,0.00
2018-07-22T00:42:15.435Z,0.00
2018-07-22T00:43:15.428Z,0.00
2018-07-22T00:44:15.441Z,0.00
2018-07-22T00:45:15.457Z,0.00
2018-07-22T00:46:15.477Z,0.00
2018-07-22T00:47:15.482Z,0.00
2018-07-22T00:48:15.487Z,0.00
2018-07-22T00:49:15.506Z,0.00
2018-07-22T00:50:15.508Z,0.00
2018-07-22T00:52:15.580Z,0.00
2018-07-22T00:53:15.553Z,0.00
2018-07-22T00:54:15.583Z,0.00
2018-07-22T00:55:15.577Z,0.00
2018-07-22T00:56:15.613Z,0.00
2018-07-22T00:57:15.597Z,0.00
2018-07-22T00:58:15.613Z,0.00
2018-07-22T00:59:15.621Z,0.00
2018-07-22T01:00:15.694Z,0.00
2018-07-22T01:01:15.644Z,0.00
2018-07-22T01:02:15.662Z,0.00
2018-07-22T01:03:15.843Z,0.00
2018-07-22T01:04:15.682Z,0.00
2018-07-22T01:05:15.698Z,0.00
2018-07-22T01:06:15.711Z,0.00
2018-07-22T01:07:15.720Z,0.00
2018-07-22T01:09:15.746Z,0.00
2018-07-22T01:10:15.761Z,0.00
2018-07-22T01:11:15.765Z,0.00
2018-07-22T01:12:15.779Z,0.00
2018-07-22T01:13:15.790Z,0.00
2018-07-22T01:14:15.808Z,0.00
2018-07-22T01:15:15.823Z,0.00
2018-07-22T01:16:15.830Z,0.00
2018-07-22T01:17:15.844Z,0.00
2018-07-22T01:18:15.843Z,0.00
2018-07-22T01:19:15.863Z,0.00
2018-07-22T01:20:15.876Z,0.00
2018-07-22T01:21:15.884Z,0.00
2018-07-22T01:22:15.897Z,0.00
2018-07-22T01:23:15.913Z,0.00
2018-07-22T01:24:15.924Z,0.00
2018-07-22T01:25:15.938Z,0.00
2018-07-22T01:26:15.948Z,0.00
2018-07-22T01:27:15.958Z,0.00
2018-07-22T01:28:16.083Z,0.00
2018-07-22T01:29:15.998Z,0.00
2018-07-22T01:30:16.001Z,0.00
2018-07-22T01:31:16.019Z,0.00
2018-07-22T01:32:16.022Z,0.00
2018-07-22T01:33:16.024Z,0.00
2018-07-22T01:34:16.038Z,0.00
2018-07-22T01:35:16.045Z,0.00
2018-07-22T01:36:16.067Z,0.00
2018-07-22T01:37:16.077Z,0.00
2018-07-22T01:38:16.091Z,0.00
2018-07-22T01:39:16.102Z,0.00
2018-07-22T01:40:16.115Z,0.00
2018-07-22T01:41:16.130Z,0.00
2018-07-22T01:42:16.147Z,0.00
2018-07-22T01:43:16.159Z,0.00
2018-07-22T01:44:16.165Z,0.00
2018-07-22T01:45:16.174Z,0.00
2018-07-22T01:46:16.200Z,0.00
2018-07-22T01:47:16.201Z,0.00
2018-07-22T01:48:16.210Z,0.00
2018-07-22T01:49:16.220Z,0.00
2018-07-22T01:50:16.239Z,0.00
2018-07-22T01:51:16.246Z,0.00
2018-07-22T01:52:16.253Z,0.00
2018-07-22T01:53:16.273Z,0.00
2018-07-22T01:54:16.280Z,0.00
2018-07-22T01:55:16.664Z,0.00
2018-07-22T01:56:16.305Z,0.00
2018-07-22T01:57:16.323Z,0.00
2018-07-22T01:58:16.327Z,0.00
2018-07-22T01:59:16.343Z,0.00
2018-07-22T02:00:16.355Z,0.00
2018-07-22T02:01:16.366Z,0.00
2018-07-22T02:02:16.387Z,0.00
2018-07-22T02:03:16.392Z,0.00
2018-07-22T02:04:16.397Z,0.00
2018-07-22T02:05:16.414Z,0.00
2018-07-22T02:06:16.424Z,0.00
2018-07-22T02:07:16.423Z,0.00
2018-07-22T02:09:16.458Z,0.00
2018-07-22T02:10:16.473Z,0.00
2018-07-22T02:11:16.501Z,0.00
2018-07-22T02:12:16.526Z,0.00
2018-07-22T02:13:16.506Z,0.00
2018-07-22T02:14:16.520Z,0.00
2018-07-22T02:15:16.534Z,0.00
2018-07-22T02:16:16.538Z,0.00
2018-07-22T02:17:16.559Z,0.00
2018-07-22T02:18:16.560Z,0.00
2018-07-22T02:19:16.591Z,0.00
2018-07-22T02:20:16.584Z,0.00
2018-07-22T02:21:16.599Z,0.00
2018-07-22T02:22:16.615Z,0.00
2018-07-22T02:23:16.637Z,0.00
2018-07-22T02:24:16.637Z,0.00
2018-07-22T02:25:16.639Z,0.00
2018-07-22T02:26:16.663Z,0.00
2018-07-22T02:27:16.669Z,0.00
2018-07-22T02:28:16.691Z,0.00
2018-07-22T02:29:16.693Z,0.00
2018-07-22T02:30:16.706Z,0.00
2018-07-22T02:31:16.730Z,0.00
2018-07-22T02:32:16.739Z,0.00
2018-07-22T02:33:16.761Z,0.00
2018-07-22T02:34:16.749Z,0.00
2018-07-22T02:35:16.802Z,0.00
2018-07-22T02:36:16.772Z,0.00
2018-07-22T02:37:16.852Z,0.00
2018-07-22T02:38:16.801Z,0.00
2018-07-22T02:39:16.819Z,0.00
2018-07-22T02:40:16.817Z,0.00
2018-07-22T02:41:16.847Z,0.00
2018-07-22T02:42:16.845Z,0.00
2018-07-22T02:43:16.850Z,0.00
2018-07-22T02:44:16.867Z,0.00
2018-07-22T02:45:16.878Z,0.00
2018-07-22T02:46:16.889Z,0.00
2018-07-22T02:47:16.898Z,0.00
2018-07-22T02:48:16.906Z,0.00
2018-07-22T02:49:16.975Z,0.00
2018-07-22T02:50:16.936Z,0.00
2018-07-22T02:51:16.951Z,0.00
2018-07-22T02:52:16.963Z,0.00
2018-07-22T02:53:16.974Z,0.00
2018-07-22T02:54:17.047Z,0.00
2018-07-22T02:55:16.998Z,0.00
2018-07-22T02:56:17.007Z,0.00
2018-07-22T02:57:17.017Z,0.00
2018-07-22T02:58:17.031Z,0.00
2018-07-22T02:59:17.042Z,0.00
2018-07-22T03:00:17.051Z,0.00
2018-07-22T03:01:17.068Z,0.00
2018-07-22T03:02:17.090Z,0.00
2018-07-22T03:03:17.105Z,0.00
2018-07-22T03:04:17.095Z,0.00
2018-07-22T03:05:17.111Z,0.00
2018-07-22T03:06:17.122Z,0.00
2018-07-22T03:07:17.139Z,0.00
2018-07-22T03:08:17.143Z,0.00
2018-07-22T03:09:17.158Z,0.00
2018-07-22T03:10:17.168Z,0.00
2018-07-22T03:11:17.186Z,0.00
2018-07-22T03:12:17.190Z,0.00
2018-07-22T03:13:17.203Z,0.00
2018-07-22T03:14:17.218Z,0.00
2018-07-22T03:15:17.222Z,0.00
2018-07-22T03:16:17.433Z,0.00
2018-07-22T03:17:17.246Z,0.00
2018-07-22T03:18:17.264Z,0.00
2018-07-22T03:19:17.270Z,0.00
2018-07-22T03:20:17.282Z,0.00
2018-07-22T03:21:17.291Z,0.00
2018-07-22T03:22:17.302Z,0.00
2018-07-22T03:23:17.319Z,0.00
2018-07-22T03:24:17.332Z,0.00
2018-07-22T03:25:17.344Z,0.00
2018-07-22T03:26:17.352Z,0.00
2018-07-22T03:27:17.363Z,0.00
2018-07-22T03:28:17.375Z,0.00
2018-07-22T03:29:17.385Z,0.00
2018-07-22T03:30:17.397Z,0.00
2018-07-22T03:31:17.409Z,5.63
2018-07-22T03:32:17.414Z,5.63
2018-07-22T03:33:17.435Z,5.63
2018-07-22T03:34:17.447Z,5.63
2018-07-22T03:35:17.453Z,5.63
2018-07-22T03:36:17.464Z,5.63
2018-07-22T03:37:17.478Z,5.63
2018-07-22T03:38:17.484Z,5.63
2018-07-22T03:39:17.571Z,5.63
2018-07-22T03:40:17.506Z,5.63
2018-07-22T03:41:18.203Z,11.25
2018-07-22T03:42:17.541Z,11.25
2018-07-22T03:43:17.546Z,11.25
2018-07-22T03:44:17.556Z,11.25
2018-07-22T03:45:17.565Z,11.25
2018-07-22T03:46:17.576Z,11.25
2018-07-22T03:47:17.642Z,16.88
2018-07-22T03:48:17.603Z,16.88
2018-07-22T03:49:17.615Z,16.88
2018-07-22T03:50:17.623Z,16.88
2018-07-22T03:51:17.629Z,16.88
2018-07-22T03:52:17.648Z,16.88
2018-07-22T03:53:17.661Z,22.50
2018-07-22T03:54:17.683Z,22.50
2018-07-22T03:55:17.677Z,22.50
2018-07-22T03:56:17.686Z,22.50
2018-07-22T03:57:17.697Z,22.50
2018-07-22T03:58:17.715Z,28.13
2018-07-22T03:59:17.730Z,28.13
2018-07-22T04:00:17.741Z,28.13
2018-07-22T04:01:17.751Z,28.13
2018-07-22T04:02:17.764Z,28.13
2018-07-22T04:03:17.776Z,33.75
2018-07-22T04:04:17.786Z,33.75
2018-07-22T04:05:17.796Z,33.75
2018-07-22T04:06:17.807Z,33.75
2018-07-22T04:07:17.820Z,39.38
2018-07-22T04:08:18.052Z,39.38
2018-07-22T04:09:17.832Z,39.38
2018-07-22T04:10:17.847Z,39.38
2018-07-22T04:11:17.858Z,45.00
2018-07-22T04:12:17.872Z,45.00
2018-07-22T04:13:17.882Z,45.00
2018-07-22T04:14:17.901Z,45.00
2018-07-22T04:15:17.901Z,50.63
2018-07-22T04:16:17.919Z,50.63
2018-07-22T04:17:17.933Z,50.63
2018-07-22T04:18:17.944Z,50.63
2018-07-22T04:19:17.948Z,56.25
2018-07-22T04:20:17.962Z,56.25
2018-07-22T04:22:17.984Z,61.88
2018-07-22T04:23:18.004Z,61.88
2018-07-22T04:24:18.014Z,61.88
2018-07-22T04:25:18.026Z,67.50
2018-07-22T04:26:18.029Z,67.50
2018-07-22T04:27:18.045Z,67.50
2018-07-22T04:28:18.061Z,73.13
2018-07-22T04:29:18.066Z,73.13
2018-07-22T04:30:18.075Z,78.75
2018-07-22T04:31:18.714Z,78.75
2018-07-22T04:32:18.096Z,78.75
2018-07-22T04:33:18.105Z,84.38
2018-07-22T04:34:18.117Z,84.38
2018-07-22T04:35:18.131Z,90.00
2018-07-22T04:36:18.144Z,90.00
2018-07-22T04:37:18.155Z,84.38
2018-07-22T04:38:18.165Z,95.63
2018-07-22T04:39:18.173Z,90.00
2018-07-22T04:40:18.193Z,90.00
2018-07-22T04:41:18.192Z,95.63
2018-07-22T04:42:18.210Z,95.63
2018-07-22T04:43:18.226Z,95.63
2018-07-22T04:44:18.248Z,101.25
2018-07-22T04:45:18.239Z,101.25
2018-07-22T04:46:18.273Z,101.25
2018-07-22T04:47:18.263Z,106.88
2018-07-22T04:48:18.273Z,106.88
2018-07-22T04:49:18.290Z,106.88
2018-07-22T04:50:18.303Z,112.50
2018-07-22T04:51:18.309Z,112.50
2018-07-22T04:52:18.328Z,112.50
2018-07-22T04:53:18.351Z,112.50
2018-07-22T04:54:18.342Z,118.13
2018-07-22T04:55:18.354Z,123.75
2018-07-22T04:56:18.376Z,123.75
2018-07-22T04:57:18.378Z,129.38
2018-07-22T04:58:18.388Z,129.38
2018-07-22T04:59:18.397Z,135.00
2018-07-22T05:00:18.419Z,135.00
2018-07-22T05:01:18.423Z,135.00
2018-07-22T05:02:18.433Z,140.63
2018-07-22T05:03:18.450Z,140.63
2018-07-22T05:04:18.478Z,146.25
2018-07-22T05:05:18.475Z,146.25
2018-07-22T05:06:18.522Z,146.25
2018-07-22T05:07:18.490Z,151.88
2018-07-22T05:08:18.507Z,151.88
2018-07-22T05:09:18.515Z,151.88
2018-07-22T05:10:18.529Z,157.50
2018-07-22T05:11:18.547Z,157.50
2018-07-22T05:12:18.555Z,157.50
2018-07-22T05:13:18.564Z,163.13
2018-07-22T05:14:18.565Z,163.13
2018-07-22T05:15:18.586Z,168.75
2018-07-22T05:16:18.588Z,168.75
2018-07-22T05:17:18.596Z,174.38
2018-07-22T05:18:18.619Z,174.38
2018-07-22T05:19:18.626Z,180.00
2018-07-22T05:20:18.633Z,180.00
2018-07-22T05:21:18.647Z,185.63
2018-07-22T05:22:18.664Z,185.63
2018-07-22T05:23:18.669Z,191.25
2018-07-22T05:24:18.682Z,191.25
2018-07-22T05:25:18.703Z,202.50
2018-07-22T05:26:18.708Z,196.88
2018-07-22T05:27:18.721Z,196.88
2018-07-22T05:28:18.794Z,202.50
2018-07-22T05:29:18.736Z,202.50
2018-07-22T05:30:18.759Z,202.50
2018-07-22T05:31:18.766Z,208.13
2018-07-22T05:32:18.778Z,208.13
2018-07-22T05:33:18.791Z,208.13
2018-07-22T05:34:18.803Z,213.75
2018-07-22T05:35:18.821Z,213.75
2018-07-22T05:36:18.831Z,219.38
2018-07-22T05:37:18.826Z,219.38
2018-07-22T05:38:18.843Z,219.38
2018-07-22T05:39:18.863Z,219.38
2018-07-22T05:40:18.866Z,219.38
2018-07-22T05:41:18.879Z,225.00
2018-07-22T05:42:18.898Z,225.00
2018-07-22T05:43:18.903Z,225.00
2018-07-22T05:44:18.948Z,230.63
2018-07-22T05:45:18.927Z,230.63
2018-07-22T05:46:18.943Z,236.25
2018-07-22T05:47:18.952Z,236.25
2018-07-22T05:48:18.965Z,241.88
2018-07-22T05:49:18.972Z,241.88
2018-07-22T05:50:18.997Z,241.88
2018-07-22T05:51:18.994Z,247.50
2018-07-22T05:52:19.007Z,247.50
2018-07-22T05:53:19.023Z,253.13
2018-07-22T05:54:19.038Z,253.13
2018-07-22T05:55:19.064Z,253.13
2018-07-22T05:56:19.059Z,253.13
2018-07-22T05:57:19.071Z,258.75
2018-07-22T05:58:19.084Z,258.75
2018-07-22T05:59:19.095Z,264.38
2018-07-22T06:00:19.109Z,264.38
2018-07-22T06:01:19.116Z,270.00
2018-07-22T06:02:19.140Z,270.00
2018-07-22T06:03:19.135Z,275.63
2018-07-22T06:04:19.155Z,275.63
2018-07-22T06:05:19.175Z,281.25
2018-07-22T06:06:19.177Z,281.25
2018-07-22T06:07:19.189Z,286.88
2018-07-22T06:08:19.197Z,286.88
2018-07-22T06:09:19.211Z,292.50
2018-07-22T06:10:19.227Z,292.50
2018-07-22T06:11:19.237Z,298.13
2018-07-22T06:12:19.253Z,298.13
2018-07-22T06:13:19.269Z,303.75
2018-07-22T06:14:19.274Z,303.75
2018-07-22T06:15:19.287Z,309.38
2018-07-22T06:16:19.299Z,309.38
2018-07-22T06:17:19.315Z,315.00
2018-07-22T06:18:19.317Z,315.00
2018-07-22T06:19:19.344Z,320.63
2018-07-22T06:20:19.346Z,326.25
2018-07-22T06:21:19.364Z,320.63
2018-07-22T06:22:19.374Z,331.88
2018-07-22T06:23:19.435Z,348.75
2018-07-22T06:24:19.397Z,354.38
2018-07-22T06:25:19.416Z,360.00
2018-07-22T06:26:19.428Z,365.63
2018-07-22T06:27:19.438Z,365.63
2018-07-22T06:28:19.451Z,371.25
2018-07-22T06:29:19.463Z,365.63
2018-07-22T06:30:19.472Z,365.63
2018-07-22T06:31:19.490Z,371.25
2018-07-22T06:32:19.547Z,382.50
2018-07-22T06:33:19.515Z,382.50
2018-07-22T06:34:19.535Z,382.50
2018-07-22T06:35:19.602Z,388.13
2018-07-22T06:36:19.561Z,388.13
2018-07-22T06:37:19.584Z,393.75
2018-07-22T06:38:19.587Z,399.38
2018-07-22T06:39:19.602Z,399.38
2018-07-22T06:40:19.619Z,399.38
2018-07-22T06:41:19.631Z,399.38
2018-07-22T06:42:19.653Z,399.38
2018-07-22T06:43:19.662Z,405.00
2018-07-22T06:44:19.677Z,410.63
2018-07-22T06:45:19.699Z,410.63
2018-07-22T06:46:19.710Z,421.88
2018-07-22T06:47:19.724Z,421.88
2018-07-22T06:48:19.745Z,416.25
2018-07-22T06:50:19.771Z,433.13
2018-07-22T06:51:19.790Z,438.75
2018-07-22T06:52:19.808Z,438.75
2018-07-22T06:53:19.818Z,438.75
2018-07-22T06:54:19.848Z,438.75
2018-07-22T06:55:19.850Z,438.75
2018-07-22T06:56:19.868Z,444.38
2018-07-22T06:57:19.931Z,450.00
2018-07-22T06:58:19.895Z,450.00
2018-07-22T06:59:19.918Z,455.63
2018-07-22T07:00:19.931Z,455.63
2018-07-22T07:01:19.951Z,455.63
2018-07-22T07:02:19.963Z,455.63
2018-07-22T07:03:19.982Z,455.63
2018-07-22T07:04:19.996Z,461.25
2018-07-22T07:05:20.042Z,461.25
2018-07-22T07:06:20.028Z,461.25
2018-07-22T07:07:20.052Z,461.25
2018-07-22T07:08:20.066Z,466.88
2018-07-22T07:09:20.077Z,472.50
2018-07-22T07:10:20.092Z,478.13
2018-07-22T07:11:20.110Z,478.13
2018-07-22T07:12:20.126Z,483.75
2018-07-22T07:13:20.145Z,489.38
2018-07-22T07:14:20.155Z,489.38
2018-07-22T07:15:20.175Z,489.38
2018-07-22T07:16:20.196Z,495.00
2018-07-22T07:17:20.203Z,495.00
2018-07-22T07:18:20.222Z,500.63
2018-07-22T07:19:20.260Z,506.25
2018-07-22T07:20:20.262Z,506.25
2018-07-22T07:21:20.275Z,506.25
2018-07-22T07:22:20.307Z,511.88
2018-07-22T07:23:20.310Z,517.50
2018-07-22T07:24:20.337Z,517.50
2018-07-22T07:25:20.347Z,511.88
2018-07-22T07:26:20.364Z,523.13
2018-07-22T07:27:20.376Z,528.75
2018-07-22T07:28:20.392Z,528.75
2018-07-22T07:29:20.404Z,534.38
2018-07-22T07:30:20.436Z,517.50
2018-07-22T07:31:20.444Z,551.25
2018-07-22T07:32:20.470Z,545.63
2018-07-22T07:34:20.564Z,545.63
2018-07-22T07:35:20.526Z,551.25
2018-07-22T07:36:20.534Z,556.88
2018-07-22T07:37:20.546Z,551.25
2018-07-22T07:38:20.564Z,556.88
2018-07-22T07:39:20.582Z,562.50
2018-07-22T07:40:20.598Z,568.13
2018-07-22T07:41:20.623Z,573.75
2018-07-22T07:42:20.702Z,579.38
2018-07-22T07:43:20.660Z,579.38
2018-07-22T07:44:20.669Z,590.63
2018-07-22T07:45:20.685Z,596.25
2018-07-22T07:46:20.707Z,613.13
2018-07-22T07:47:20.714Z,618.75
2018-07-22T07:48:20.738Z,635.63
2018-07-22T07:49:20.758Z,635.63
2018-07-22T07:50:20.794Z,652.50
2018-07-22T07:51:20.797Z,680.63
2018-07-22T07:52:20.809Z,686.25
2018-07-22T07:53:20.841Z,697.50
2018-07-22T07:54:20.847Z,714.38
2018-07-22T07:55:20.861Z,725.63
2018-07-22T07:56:20.885Z,742.50
2018-07-22T07:57:20.892Z,753.75
2018-07-22T07:58:20.912Z,770.63
2018-07-22T07:59:20.927Z,781.88
2018-07-22T08:00:20.949Z,793.13
2018-07-22T08:01:20.975Z,810.00
2018-07-22T08:02:20.978Z,832.50
2018-07-22T08:03:21.021Z,843.75
2018-07-22T08:04:21.024Z,843.75
2018-07-22T08:05:21.046Z,849.38
2018-07-22T08:06:21.061Z,871.88
2018-07-22T08:07:21.075Z,871.88
2018-07-22T08:08:21.093Z,866.25
2018-07-22T08:09:21.129Z,888.75
2018-07-22T08:10:21.127Z,900.00
2018-07-22T08:12:21.173Z,928.13
2018-07-22T08:13:21.185Z,945.00
2018-07-22T08:14:21.209Z,950.63
2018-07-22T08:15:21.217Z,950.63
2018-07-22T08:16:21.244Z,922.50
2018-07-22T08:17:21.261Z,888.75
2018-07-22T08:18:21.289Z,894.38
2018-07-22T08:19:21.296Z,888.75
2018-07-22T08:20:21.312Z,956.25
2018-07-22T08:21:21.346Z,1001.25
2018-07-22T08:22:21.350Z,956.25
2018-07-22T08:23:21.365Z,956.25
2018-07-22T08:24:21.387Z,928.13
2018-07-22T08:25:21.405Z,1085.63
2018-07-22T08:26:21.437Z,1108.13
2018-07-22T08:27:21.443Z,1102.50
2018-07-22T08:28:21.453Z,1102.50
2018-07-22T08:29:21.475Z,1136.25
2018-07-22T08:30:21.509Z,1147.50
2018-07-22T08:31:21.516Z,1147.50
2018-07-22T08:32:21.541Z,1153.13
2018-07-22T08:33:21.551Z,1136.25
2018-07-22T08:34:21.569Z,1164.38
2018-07-22T08:35:21.587Z,1181.25
2018-07-22T08:36:21.598Z,1181.25
2018-07-22T08:37:21.623Z,1175.63
2018-07-22T08:38:21.652Z,1170.00
2018-07-22T08:39:21.669Z,1203.75
2018-07-22T08:40:21.680Z,1226.25
2018-07-22T08:41:21.773Z,1265.63
2018-07-22T08:42:21.726Z,1276.88
2018-07-22T08:43:21.737Z,1271.25
2018-07-22T08:44:21.754Z,1248.75
2018-07-22T08:45:21.774Z,1226.25
2018-07-22T08:46:21.795Z,1254.38
2018-07-22T08:47:21.820Z,1271.25
2018-07-22T08:48:21.830Z,1316.25
2018-07-22T08:49:21.853Z,1310.63
2018-07-22T08:51:21.901Z,1299.38
2018-07-22T08:52:21.911Z,1355.63
2018-07-22T08:53:21.927Z,1316.25
2018-07-22T08:54:21.941Z,1333.13
2018-07-22T08:55:21.971Z,1276.88
2018-07-22T08:56:21.991Z,1243.13
2018-07-22T08:57:22.006Z,1265.63
2018-07-22T08:58:22.044Z,1355.63
2018-07-22T08:59:22.041Z,1372.50
2018-07-22T09:00:22.076Z,1344.38
2018-07-22T09:02:22.097Z,1400.63
2018-07-22T09:03:22.139Z,1400.63
2018-07-22T09:04:22.145Z,1423.13
2018-07-22T09:05:22.223Z,1434.38
2018-07-22T09:07:22.197Z,1462.50
2018-07-22T09:08:22.212Z,1479.38
2018-07-22T09:09:22.229Z,1456.88
2018-07-22T09:10:22.259Z,1451.25
2018-07-22T09:11:22.272Z,1468.13
2018-07-22T09:12:22.309Z,1485.00
2018-07-22T09:13:22.318Z,1456.88
2018-07-22T09:14:22.347Z,1445.63
2018-07-22T09:15:22.365Z,1456.88
2018-07-22T09:16:22.377Z,1496.25
2018-07-22T09:17:22.384Z,1518.75
2018-07-22T09:18:22.415Z,1496.25
2018-07-22T09:19:22.428Z,1473.75
2018-07-22T09:20:22.461Z,1479.38
2018-07-22T09:21:22.475Z,1501.88
2018-07-22T09:22:22.498Z,1518.75
2018-07-22T09:23:22.508Z,1541.25
2018-07-22T09:24:22.534Z,1507.50
2018-07-22T09:25:22.558Z,1513.13
2018-07-22T09:26:22.592Z,1496.25
2018-07-22T09:27:22.597Z,1513.13
2018-07-22T09:28:22.614Z,1524.38
2018-07-22T09:29:22.633Z,1546.88
2018-07-22T09:30:22.660Z,1535.63
2018-07-22T09:31:22.679Z,1518.75
2018-07-22T09:32:22.703Z,1552.50
2018-07-22T09:33:22.719Z,1580.63
2018-07-22T09:34:22.739Z,1563.75
2018-07-22T09:35:22.753Z,1552.50
2018-07-22T09:36:22.824Z,1552.50
2018-07-22T09:37:22.812Z,1563.75
2018-07-22T09:38:22.872Z,1580.63
2018-07-22T09:39:22.844Z,1569.38
2018-07-22T09:40:22.861Z,1552.50
2018-07-22T09:41:22.881Z,1563.75
2018-07-22T09:42:22.901Z,1558.13
2018-07-22T09:43:22.927Z,1569.38
2018-07-22T09:44:22.956Z,1580.63
2018-07-22T09:45:22.965Z,1603.13
2018-07-22T09:46:22.984Z,1597.50
2018-07-22T09:47:23.005Z,1575.00
2018-07-22T09:48:23.031Z,1597.50
2018-07-22T09:49:23.049Z,1648.13
2018-07-22T09:50:23.070Z,1676.25
2018-07-22T09:51:23.086Z,1625.63
2018-07-22T09:52:23.111Z,1603.13
2018-07-22T09:53:23.136Z,1631.25
2018-07-22T09:54:23.201Z,1665.00
2018-07-22T09:55:23.169Z,1636.88
2018-07-22T09:56:23.195Z,1636.88
2018-07-22T09:57:23.215Z,1665.00
2018-07-22T09:58:23.280Z,1681.88
2018-07-22T09:59:23.919Z,1676.25
2018-07-22T10:00:23.279Z,1704.38
2018-07-22T10:01:23.302Z,1777.50
2018-07-22T10:02:23.321Z,1693.13
2018-07-22T10:03:23.344Z,1659.38
2018-07-22T10:04:23.376Z,1704.38
2018-07-22T10:05:23.383Z,1693.13
2018-07-22T10:06:23.401Z,1659.38
2018-07-22T10:07:23.433Z,1676.25
2018-07-22T10:08:23.461Z,1704.38
2018-07-22T10:09:23.464Z,1749.38
2018-07-22T10:10:23.481Z,1749.38
2018-07-22T10:11:23.519Z,1721.25
2018-07-22T10:12:23.530Z,1743.75
2018-07-22T10:13:23.553Z,1771.88
2018-07-22T10:14:23.636Z,1653.75
2018-07-22T10:15:23.596Z,1732.50
2018-07-22T10:16:23.613Z,1721.25
2018-07-22T10:17:23.627Z,1676.25
2018-07-22T10:18:23.673Z,1687.50
2018-07-22T10:19:23.683Z,1738.13
2018-07-22T10:20:23.699Z,1777.50
2018-07-22T10:21:23.711Z,1788.75
2018-07-22T10:22:23.755Z,1715.63
2018-07-22T10:23:23.790Z,1732.50
2018-07-22T10:24:23.786Z,1794.38
2018-07-22T10:25:23.799Z,1839.38
2018-07-22T10:26:23.833Z,1788.75
2018-07-22T10:27:23.845Z,1743.75
2018-07-22T10:28:23.863Z,1665.00
2018-07-22T10:29:23.888Z,1749.38
2018-07-22T10:30:23.919Z,1771.88
2018-07-22T10:31:23.946Z,1816.88
2018-07-22T10:32:23.951Z,1800.00
2018-07-22T10:33:23.974Z,1805.63
2018-07-22T10:34:23.993Z,1822.50
2018-07-22T10:35:24.013Z,1861.88
2018-07-22T10:36:24.147Z,1839.38
2018-07-22T10:37:24.063Z,1845.00
2018-07-22T10:38:24.241Z,1670.63
2018-07-22T10:39:24.095Z,1850.63
2018-07-22T10:40:24.122Z,1833.75
2018-07-22T10:41:24.190Z,1856.25
2018-07-22T10:42:24.156Z,1861.88
2018-07-22T10:43:24.253Z,1828.13
2018-07-22T10:44:24.203Z,1755.00
2018-07-22T10:45:24.217Z,1794.38
2018-07-22T10:46:24.243Z,1918.13
2018-07-22T10:47:24.266Z,1895.63
2018-07-22T10:48:24.311Z,1850.63
2018-07-22T10:49:24.311Z,1878.75
2018-07-22T10:50:24.361Z,1895.63
2018-07-22T10:51:24.350Z,1906.88
2018-07-22T10:52:24.364Z,1906.88
2018-07-22T10:53:24.443Z,1873.13
2018-07-22T10:54:24.422Z,1873.13
2018-07-22T10:55:24.441Z,1828.13
2018-07-22T10:56:24.472Z,1816.88
2018-07-22T10:57:24.485Z,1867.50
2018-07-22T10:58:24.508Z,1940.63
2018-07-22T10:59:24.532Z,1878.75
2018-07-22T11:00:24.537Z,1811.25
2018-07-22T11:01:24.569Z,1794.38
2018-07-22T11:02:24.656Z,1890.00
2018-07-22T11:03:24.677Z,1951.88
2018-07-22T11:04:24.655Z,1957.50
2018-07-22T11:05:24.658Z,1935.00
2018-07-22T11:06:24.737Z,1935.00
2018-07-22T11:07:24.691Z,1957.50
2018-07-22T11:08:24.726Z,2002.50
2018-07-22T11:09:24.745Z,1951.88
2018-07-22T11:10:24.762Z,1873.13
2018-07-22T11:11:24.787Z,1338.75
2018-07-22T11:12:24.805Z,1350.00
2018-07-22T11:13:24.822Z,1918.13
2018-07-22T11:14:24.903Z,1901.25
2018-07-22T11:15:24.873Z,1951.88
2018-07-22T11:16:24.897Z,1755.00
2018-07-22T11:17:24.915Z,984.38
2018-07-22T11:18:24.937Z,961.88
2018-07-22T11:19:24.950Z,1046.25
2018-07-22T11:20:24.985Z,1766.25
2018-07-22T11:21:25.099Z,916.88
2018-07-22T11:22:25.016Z,815.63
2018-07-22T11:23:25.047Z,753.75
2018-07-22T11:24:25.065Z,731.25
2018-07-22T11:25:25.083Z,748.13
2018-07-22T11:26:25.099Z,1715.63
2018-07-22T11:27:25.118Z,922.50
2018-07-22T11:28:25.137Z,1018.13
2018-07-22T11:29:25.148Z,1198.13
2018-07-22T11:30:25.174Z,1642.50
2018-07-22T11:31:25.198Z,1957.50
2018-07-22T11:32:25.222Z,2103.75
2018-07-22T11:33:25.231Z,2131.88
2018-07-22T11:34:25.255Z,2098.13
2018-07-22T11:35:25.271Z,2030.63
2018-07-22T11:36:25.284Z,1996.88
2018-07-22T11:37:25.311Z,1895.63
2018-07-22T11:38:25.333Z,1423.13
2018-07-22T11:39:25.366Z,1226.25
2018-07-22T11:40:25.394Z,826.88
2018-07-22T11:41:25.397Z,1130.63
2018-07-22T11:42:25.424Z,1423.13
2018-07-22T11:43:25.435Z,781.88
2018-07-22T11:44:25.457Z,1057.50
2018-07-22T11:45:25.470Z,1057.50
2018-07-22T11:46:25.494Z,1018.13
2018-07-22T11:47:25.513Z,720.00
2018-07-22T11:48:25.533Z,680.63
2018-07-22T11:49:25.550Z,596.25
2018-07-22T11:50:25.603Z,573.75
2018-07-22T11:51:25.588Z,579.38
2018-07-22T11:52:25.622Z,573.75
2018-07-22T11:53:25.627Z,624.38
2018-07-22T11:54:25.647Z,708.75
2018-07-22T11:55:25.665Z,967.50
2018-07-22T11:56:25.683Z,860.63
2018-07-22T11:57:25.700Z,759.38
2018-07-22T11:58:25.746Z,871.88
2018-07-22T11:59:25.738Z,753.75
2018-07-22T12:00:25.762Z,753.75
2018-07-22T12:01:25.785Z,945.00
2018-07-22T12:02:25.790Z,1085.63
2018-07-22T12:03:25.815Z,956.25
2018-07-22T12:04:25.836Z,883.13
2018-07-22T12:05:25.847Z,888.75
2018-07-22T12:06:25.851Z,866.25
2018-07-22T12:07:25.884Z,804.38
2018-07-22T12:08:25.917Z,697.50
2018-07-22T12:09:25.919Z,697.50
2018-07-22T12:10:25.940Z,725.63
2018-07-22T12:11:25.950Z,708.75
2018-07-22T12:12:25.979Z,703.13
2018-07-22T12:13:25.983Z,815.63
2018-07-22T12:14:26.008Z,877.50
2018-07-22T12:15:26.020Z,945.00
2018-07-22T12:16:26.042Z,1963.13
2018-07-22T12:17:26.083Z,1923.75
2018-07-22T12:18:26.083Z,2131.88
2018-07-22T12:20:26.105Z,2103.75
2018-07-22T12:21:26.151Z,2126.25
2018-07-22T12:22:26.151Z,2171.25
2018-07-22T12:23:26.243Z,2193.75
2018-07-22T12:24:26.186Z,2126.25
2018-07-22T12:25:26.207Z,1878.75
2018-07-22T12:26:26.223Z,1507.50
2018-07-22T12:27:26.244Z,1541.25
2018-07-22T12:28:26.263Z,1237.50
2018-07-22T12:29:26.276Z,1215.00
2018-07-22T12:30:26.295Z,1001.25
2018-07-22T12:31:26.332Z,894.38
2018-07-22T12:32:26.354Z,877.50
2018-07-22T12:33:26.361Z,585.00
2018-07-22T12:34:26.538Z,540.00
2018-07-22T12:35:26.413Z,511.88
2018-07-22T12:36:26.418Z,495.00
2018-07-22T12:37:26.438Z,466.88
2018-07-22T12:38:26.457Z,450.00
2018-07-22T12:39:26.467Z,444.38
2018-07-22T12:40:26.518Z,450.00
2018-07-22T12:41:26.523Z,455.63
2018-07-22T12:42:26.539Z,466.88
2018-07-22T12:43:26.546Z,483.75
2018-07-22T12:44:26.566Z,495.00
2018-07-22T12:45:26.589Z,495.00
2018-07-22T12:46:26.645Z,506.25
2018-07-22T12:47:26.613Z,556.88
2018-07-22T12:48:26.640Z,781.88
2018-07-22T12:49:26.683Z,950.63
2018-07-22T12:50:26.673Z,1035.00
2018-07-22T12:51:26.701Z,1873.13